Time;durP1;ratioP1;P1;durP2;ratioP2;P2;SDS_P1;SDS_P2;PMS_P1;PMS_P2;Temp;Humidity;BMP_temperature;BMP_pressure;BME280_temperature;BME280_humidity;BME280_pressure;Samples;Min_cycle;Max_cycle;Signal;HPM_P1;HPM_P2
2023/01/04 00:00:47;;;;;;;;;0.33;0.33;;;;;12.53;100.00;102223.75;5078447;27;47069;-72
2023/01/04 00:03:12;;;;;;;;;2.00;0.33;;;;;12.51;100.00;102215.72;5076523;27;54077;-74
2023/01/04 00:05:37;;;;;;;;;1.00;1.00;;;;;12.53;100.00;102216.69;5082835;27;57323;-74
2023/01/04 00:08:03;;;;;;;;;0.00;0.00;;;;;12.49;100.00;102209.50;5083964;27;45671;-74
2023/01/04 00:10:28;;;;;;;;;2.33;1.00;;;;;12.53;100.00;102226.38;5084486;27;45433;-74
2023/01/04 00:12:54;;;;;;;;;0.67;0.00;;;;;12.55;100.00;102217.59;5085264;27;45536;-73
2023/01/04 00:15:19;;;;;;;;;2.33;1.00;;;;;12.57;100.00;102209.72;5067370;27;48312;-73
2023/01/04 00:17:44;;;;;;;;;1.00;1.00;;;;;12.58;100.00;102215.03;5092137;27;57911;-75
2023/01/04 00:20:10;;;;;;;;;1.00;1.00;;;;;12.58;100.00;102201.78;5086499;27;45273;-73
2023/01/04 00:22:35;;;;;;;;;1.00;1.00;;;;;12.59;100.00;102214.19;5073995;27;45593;-76
2023/01/04 00:25:01;;;;;;;;;2.00;1.00;;;;;12.57;100.00;102215.91;5074901;27;51723;-74
2023/01/04 00:27:26;;;;;;;;;0.67;0.67;;;;;12.58;100.00;102208.84;5076949;27;57255;-74
2023/01/04 00:29:51;;;;;;;;;1.67;1.00;;;;;12.57;100.00;102191.16;5078037;27;54991;-74
2023/01/04 00:32:17;;;;;;;;;3.33;1.33;;;;;12.60;100.00;102204.47;5075537;27;54191;-76
2023/01/04 00:34:42;;;;;;;;;1.00;1.00;;;;;12.60;100.00;102199.19;5080631;27;45859;-77
2023/01/04 00:37:07;;;;;;;;;2.00;2.00;;;;;12.63;100.00;102201.03;5079001;27;48855;-75
2023/01/04 00:39:33;;;;;;;;;1.33;1.33;;;;;12.62;100.00;102207.16;5074356;27;45526;-73
2023/01/04 00:42:03;;;;;;;;;1.33;1.00;;;;;12.61;100.00;102194.78;5078084;27;47471;-73
2023/01/04 00:44:30;;;;;;;;;4.00;1.00;;;;;12.62;100.00;102191.25;5074810;27;45497;-74
2023/01/04 00:46:55;;;;;;;;;1.00;1.00;;;;;12.62;100.00;102199.19;5076627;27;45509;-75
2023/01/04 00:49:21;;;;;;;;;3.00;1.00;;;;;12.62;100.00;102184.19;5088717;27;45678;-74
2023/01/04 00:51:46;;;;;;;;;0.67;0.67;;;;;12.61;100.00;102187.72;5071666;27;45402;-74
2023/01/04 00:54:13;;;;;;;;;1.00;1.00;;;;;12.64;100.00;102189.56;5083583;27;46058;-73
2023/01/04 00:56:38;;;;;;;;;2.33;1.00;;;;;12.65;100.00;102186.03;5062490;27;45305;-73
2023/01/04 00:59:04;;;;;;;;;0.67;0.67;;;;;12.66;100.00;102182.53;5087767;27;50218;-74
2023/01/04 01:01:31;;;;;;;;;0.00;0.00;;;;;12.65;100.00;102175.44;5080698;27;45482;-73
2023/01/04 01:03:59;;;;;;;;;1.00;1.00;;;;;12.66;100.00;102174.56;5056997;27;46907;-74
2023/01/04 01:06:25;;;;;;;;;1.00;1.00;;;;;12.64;100.00;102184.25;5088805;27;45480;-79
2023/01/04 01:08:51;;;;;;;;;3.00;1.33;;;;;12.64;100.00;102165.72;5073410;27;45445;-73
2023/01/04 01:11:17;;;;;;;;;2.00;2.00;;;;;12.64;100.00;102168.34;5078506;27;45458;-75
2023/01/04 01:13:42;;;;;;;;;1.33;1.00;;;;;12.62;100.00;102160.34;5076314;27;45805;-73
2023/01/04 01:16:13;;;;;;;;;1.00;1.00;;;;;12.66;100.00;102166.63;5077729;27;45240;-74
2023/01/04 01:18:41;;;;;;;;;2.00;2.00;;;;;12.66;100.00;102166.63;5067943;27;45514;-73
2023/01/04 01:21:09;;;;;;;;;1.00;1.00;;;;;12.67;100.00;102158.69;5076462;27;45502;-76
2023/01/04 01:23:35;;;;;;;;;5.00;2.00;;;;;12.64;100.00;102155.09;5065373;27;48082;-73
2023/01/04 01:26:01;;;;;;;;;4.67;2.00;;;;;12.66;100.00;102153.38;5077658;27;49214;-73
2023/01/04 01:28:27;;;;;;;;;0.67;0.67;;;;;12.66;100.00;102161.31;5074929;27;45437;-74
2023/01/04 01:30:52;;;;;;;;;3.00;2.00;;;;;12.66;100.00;102166.63;5059456;27;45567;-73
2023/01/04 01:33:18;;;;;;;;;1.00;1.00;;;;;12.68;100.00;102160.53;5089391;27;60527;-76
2023/01/04 01:35:43;;;;;;;;;1.00;1.00;;;;;12.69;100.00;102161.41;5076778;27;57416;-73
2023/01/04 01:38:08;;;;;;;;;1.00;1.00;;;;;12.69;100.00;102164.97;5081698;27;53612;-73
2023/01/04 01:40:34;;;;;;;;;1.00;1.00;;;;;12.68;100.00;102155.22;5073940;27;49575;-73
2023/01/04 01:42:59;;;;;;;;;3.00;1.33;;;;;12.66;100.00;102151.63;5074156;27;60428;-73
2023/01/04 01:45:27;;;;;;;;;2.67;0.33;;;;;12.68;100.00;102149.91;5066532;27;45532;-75
2023/01/04 01:47:58;;;;;;;;;4.33;1.00;;;;;12.68;100.00;102147.28;5071421;27;45217;-74
2023/01/04 01:50:37;;;;;;;;;3.00;1.00;;;;;12.69;100.00;102149.06;5078034;27;45436;-75
2023/01/04 01:53:05;;;;;;;;;3.00;1.00;;;;;12.71;100.00;102151.72;5074634;27;45776;-73
2023/01/04 01:55:32;;;;;;;;;1.33;1.33;;;;;12.71;100.00;102149.97;5084831;27;45411;-74
2023/01/04 01:57:58;;;;;;;;;3.67;1.00;;;;;12.74;100.00;102138.56;5079363;27;45266;-74
2023/01/04 02:00:24;;;;;;;;;1.67;1.67;;;;;12.73;100.00;102139.41;5070719;27;53708;-73
2023/01/04 02:03:01;;;;;;;;;1.00;1.00;;;;;12.74;100.00;102130.63;5075440;27;45672;-73
2023/01/04 02:05:27;;;;;;;;;1.00;1.00;;;;;12.75;100.00;102146.53;5060226;28;45424;-73
2023/01/04 02:07:53;;;;;;;;;1.00;1.00;;;;;12.72;100.00;102148.22;5058672;28;45433;-74
2023/01/04 02:10:18;;;;;;;;;1.00;1.00;;;;;12.75;100.00;102153.59;5053488;27;45471;-73
2023/01/04 02:12:44;;;;;;;;;2.33;1.00;;;;;12.73;100.00;102156.22;5066868;27;46378;-76
2023/01/04 02:15:10;;;;;;;;;1.00;1.00;;;;;12.74;100.00;102152.72;5073275;27;58451;-76
2023/01/04 02:17:42;;;;;;;;;1.00;1.00;;;;;12.77;100.00;102159.81;5074413;27;45408;-73
2023/01/04 02:20:39;;;;;;;;;2.00;1.00;;;;;12.79;100.00;102166.06;5052352;28;45487;-77
2023/01/04 02:23:32;;;;;;;;;0.00;0.00;;;;;12.78;100.00;102175.78;5059542;27;45698;-74
2023/01/04 02:26:22;;;;;;;;;3.00;1.00;;;;;12.80;100.00;102184.66;5074665;27;45304;-74
2023/01/04 02:29:06;;;;;;;;;1.00;1.00;;;;;12.80;100.00;102179.34;5078519;27;45583;-74
2023/01/04 02:31:34;;;;;;;;;1.00;1.00;;;;;12.81;100.00;102164.34;5058131;28;45724;-73
2023/01/04 02:34:19;;;;;;;;;1.00;1.00;;;;;12.81;100.00;102177.59;5073546;27;46875;-75
2023/01/04 02:36:45;;;;;;;;;2.67;2.67;;;;;12.81;100.00;102175.84;5071268;27;45306;-77
2023/01/04 02:39:34;;;;;;;;;0.67;0.67;;;;;12.78;100.00;102183.72;5074667;27;45374;-75
2023/01/04 02:42:19;;;;;;;;;2.33;1.67;;;;;12.78;100.00;102169.56;5075438;27;45208;-73
2023/01/04 02:44:52;;;;;;;;;1.00;1.00;;;;;12.78;100.00;102154.59;5084760;27;45898;-75
2023/01/04 02:50:30;;;;;;;;;0.00;0.00;;;;;12.82;100.00;102166.13;5062095;27;45541;-76
2023/01/04 02:53:14;;;;;;;;;1.00;1.00;;;;;12.84;100.00;102175.03;5069116;27;45498;-76
2023/01/04 02:55:47;;;;;;;;;3.00;0.33;;;;;12.83;100.00;102170.56;5040711;28;47716;-73
2023/01/04 02:58:19;;;;;;;;;1.00;1.00;;;;;12.85;100.00;102171.50;5070136;27;45513;-74
2023/01/04 03:06:50;;;;;;;;;2.00;1.00;;;;;12.87;100.00;102158.28;5078523;27;45885;-73
2023/01/04 03:09:21;;;;;;;;;1.33;0.67;;;;;12.91;100.00;102170.75;5071971;27;45318;-75
2023/01/04 03:14:50;;;;;;;;;1.00;1.00;;;;;12.88;100.00;102170.66;5057990;28;45366;-74
2023/01/04 03:17:19;;;;;;;;;1.00;1.00;;;;;12.88;100.00;102165.38;5083810;27;46891;-76
2023/01/04 03:19:53;;;;;;;;;0.00;0.00;;;;;12.89;100.00;102151.25;5071049;27;45462;-73
2023/01/04 03:36:46;;;;;;;;;0.00;0.00;;;;;12.95;100.00;102123.16;5079606;27;45335;-73
2023/01/04 03:50:53;;;;;;;;;1.33;0.00;;;;;12.95;100.00;102098.41;5057521;27;45438;-74
2023/01/04 03:53:19;;;;;;;;;0.67;0.67;;;;;12.96;100.00;102106.38;5078171;27;45834;-74
2023/01/04 03:55:45;;;;;;;;;4.00;1.00;;;;;13.00;100.00;102102.03;5082933;27;45450;-73
2023/01/04 03:58:11;;;;;;;;;0.67;0.00;;;;;13.00;100.00;102113.53;5087439;27;47382;-73
2023/01/04 04:00:37;;;;;;;;;0.00;0.00;;;;;13.00;100.00;102094.97;5077368;27;46405;-73
2023/01/04 04:03:07;;;;;;;;;0.00;0.00;;;;;13.01;100.00;102078.19;5074342;27;45332;-73
2023/01/04 04:08:29;;;;;;;;;0.00;0.00;;;;;13.03;100.00;102100.31;5091731;27;45508;-73
2023/01/04 04:11:36;;;;;;;;;2.33;0.00;;;;;13.03;100.00;102087.06;5081200;27;46054;-74
2023/01/04 04:13:55;;;;;;;;;0.00;0.00;;;;;13.07;100.00;102086.28;5081329;27;45420;-73
2023/01/04 04:16:20;;;;;;;;;0.33;0.33;;;;;13.08;100.00;102084.50;5072300;27;45846;-73
2023/01/04 04:18:46;;;;;;;;;0.33;0.33;;;;;13.06;100.00;102084.50;5076458;27;46587;-74
2023/01/04 04:21:12;;;;;;;;;0.00;0.00;;;;;13.10;100.00;102089.00;5076243;27;46646;-73
2023/01/04 04:23:38;;;;;;;;;0.67;0.00;;;;;13.08;100.00;102095.13;5056620;27;45541;-76
2023/01/04 04:26:03;;;;;;;;;0.00;0.00;;;;;13.11;100.00;102095.19;5086202;27;45890;-73
2023/01/04 04:28:29;;;;;;;;;0.00;0.00;;;;;13.11;100.00;102100.50;5061456;28;45518;-73
2023/01/04 04:30:54;;;;;;;;;2.00;0.00;;;;;13.10;100.00;102093.38;5060066;27;48778;-73
2023/01/04 04:33:19;;;;;;;;;3.67;0.00;;;;;13.09;100.00;102084.53;5075246;27;48704;-73
2023/01/04 04:35:49;;;;;;;;;2.67;0.00;;;;;13.10;100.00;102080.13;5066844;27;46221;-75
2023/01/04 04:38:14;;;;;;;;;0.00;0.00;;;;;13.12;100.00;102091.69;5075323;27;45390;-74
2023/01/04 04:43:23;;;;;;;;;2.00;0.00;;;;;13.12;100.00;102094.34;5080676;27;45431;-73
2023/01/04 04:45:48;;;;;;;;;0.67;0.67;;;;;13.12;100.00;102096.97;5069769;27;51163;-74
2023/01/04 04:48:14;;;;;;;;;0.00;0.00;;;;;13.12;100.00;102094.34;5075529;27;54137;-75
2023/01/04 04:50:39;;;;;;;;;1.00;1.00;;;;;13.13;100.00;102076.66;5073451;27;60948;-73
2023/01/04 04:53:04;;;;;;;;;1.00;1.00;;;;;13.11;100.00;102090.78;5074328;28;45326;-73
2023/01/04 04:55:30;;;;;;;;;1.00;1.00;;;;;13.13;100.00;102090.81;5059704;28;56581;-72
2023/01/04 04:57:55;;;;;;;;;1.33;1.00;;;;;13.11;100.00;102082.84;5050809;28;51303;-73
2023/01/04 05:00:20;;;;;;;;;0.00;0.00;;;;;13.12;100.00;102081.06;5067382;28;52642;-77
2023/01/04 05:02:46;;;;;;;;;0.00;0.00;;;;;13.11;100.00;102066.03;5061705;28;45395;-73
2023/01/04 05:05:11;;;;;;;;;0.00;0.00;;;;;13.16;100.00;102082.03;5068898;28;56205;-73
2023/01/04 05:07:36;;;;;;;;;0.00;0.00;;;;;13.15;100.00;102062.56;5070310;28;45631;-73
2023/01/04 05:10:02;;;;;;;;;0.00;0.00;;;;;13.18;100.00;102064.38;5066173;28;60030;-74
2023/01/04 05:15:12;;;;;;;;;0.00;0.00;;;;;13.22;100.00;102067.16;5070163;28;46109;-73
2023/01/04 05:17:37;;;;;;;;;0.00;0.00;;;;;13.19;100.00;102055.56;5074874;28;45447;-73
2023/01/04 05:20:03;;;;;;;;;1.00;1.00;;;;;13.21;100.00;102067.09;5052850;28;63550;-74
2023/01/04 05:22:28;;;;;;;;;0.67;0.67;;;;;13.23;100.00;102057.44;5071831;28;45447;-76
2023/01/04 05:24:53;;;;;;;;;0.00;0.00;;;;;13.22;100.00;102066.28;5061829;28;57252;-74
2023/01/04 05:27:19;;;;;;;;;0.00;0.00;;;;;13.22;100.00;102067.16;5072045;28;53186;-73
2023/01/04 05:32:28;;;;;;;;;0.00;0.00;;;;;13.23;100.00;102073.38;5075671;28;45563;-73
2023/01/04 05:34:53;;;;;;;;;0.33;0.00;;;;;13.27;100.00;102088.50;5065631;28;52493;-74
2023/01/04 05:37:18;;;;;;;;;0.00;0.00;;;;;13.26;100.00;102073.41;5050844;28;50502;-74
2023/01/04 05:39:44;;;;;;;;;1.00;1.00;;;;;13.28;100.00;102077.00;5063675;28;59268;-74
2023/01/04 05:42:24;;;;;;;;;0.00;0.00;;;;;13.27;100.00;102073.47;5064821;28;59379;-73
2023/01/04 05:44:50;;;;;;;;;0.00;0.00;;;;;13.30;100.00;102088.53;5074195;28;45497;-73
2023/01/04 05:47:16;;;;;;;;;0.00;0.00;;;;;13.31;100.00;102069.97;5053577;28;45661;-74
2023/01/04 05:49:41;;;;;;;;;0.00;0.00;;;;;13.33;100.00;102085.94;5072192;28;57190;-74
2023/01/04 05:52:07;;;;;;;;;0.00;0.00;;;;;13.33;100.00;102083.31;5075696;28;45813;-74
2023/01/04 05:54:32;;;;;;;;;0.00;0.00;;;;;13.30;100.00;102068.19;5073592;28;54001;-73
2023/01/04 05:56:58;;;;;;;;;0.00;0.00;;;;;13.30;100.00;102080.56;5069482;28;45510;-74
2023/01/04 05:59:23;;;;;;;;;1.67;0.00;;;;;13.31;100.00;102079.69;5068230;28;61695;-74
2023/01/04 06:01:48;;;;;;;;;0.00;0.00;;;;;13.30;100.00;102084.13;5059212;28;60971;-75
2023/01/04 06:04:14;;;;;;;;;1.00;0.00;;;;;13.27;100.00;102088.50;5069878;28;45763;-74
2023/01/04 06:06:39;;;;;;;;;2.33;0.00;;;;;13.26;100.00;102081.38;5068865;28;52163;-73
2023/01/04 06:09:04;;;;;;;;;0.00;0.00;;;;;13.29;100.00;102078.78;5074765;28;46656;-76
2023/01/04 06:11:30;;;;;;;;;0.00;0.00;;;;;13.29;100.00;102092.06;5071780;28;49934;-73
2023/01/04 06:13:55;;;;;;;;;0.00;0.00;;;;;13.26;100.00;102078.72;5068631;28;52746;-73
2023/01/04 06:16:20;;;;;;;;;0.00;0.00;;;;;13.26;100.00;102078.72;5069406;28;48367;-74
2023/01/04 06:18:46;;;;;;;;;0.00;0.00;;;;;13.27;100.00;102073.47;5062840;28;61283;-74
2023/01/04 06:21:11;;;;;;;;;0.00;0.00;;;;;13.28;100.00;102067.28;5073449;28;56880;-76
2023/01/04 06:23:36;;;;;;;;;0.00;0.00;;;;;13.26;100.00;102060.16;5064792;28;52567;-74
2023/01/04 06:26:02;;;;;;;;;0.00;0.00;;;;;13.25;100.00;102058.38;5057428;28;53981;-74
2023/01/04 06:28:28;;;;;;;;;0.00;0.00;;;;;13.22;100.00;102050.38;5064106;28;58642;-74
2023/01/04 06:30:54;;;;;;;;;0.00;0.00;;;;;13.25;100.00;102055.72;5069244;28;45403;-77
2023/01/04 06:33:19;;;;;;;;;0.00;0.00;;;;;13.24;100.00;102059.22;5060809;28;45469;-74
2023/01/04 06:35:53;;;;;;;;;0.00;0.00;;;;;13.25;100.00;102055.72;5062954;28;51003;-74
2023/01/04 06:38:18;;;;;;;;;1.33;0.00;;;;;13.25;100.00;102063.66;5054679;28;45428;-74
2023/01/04 06:40:43;;;;;;;;;0.00;0.00;;;;;13.25;100.00;102061.00;5047372;28;60440;-74
2023/01/04 06:43:09;;;;;;;;;1.00;0.00;;;;;13.24;100.00;102068.09;5047310;28;54514;-76
2023/01/04 06:45:34;;;;;;;;;0.00;0.00;;;;;13.27;100.00;102070.81;5055380;28;54199;-78
2023/01/04 06:47:59;;;;;;;;;1.00;0.00;;;;;13.25;100.00;102067.22;5071133;28;52057;-74
2023/01/04 06:50:25;;;;;;;;;2.00;0.00;;;;;13.27;100.00;102080.53;5060298;28;58187;-74
2023/01/04 06:52:50;;;;;;;;;1.00;0.00;;;;;13.28;100.00;102084.97;5077856;27;45500;-75
2023/01/04 06:55:15;;;;;;;;;0.00;0.00;;;;;13.26;100.00;102087.59;5087581;27;53406;-75
2023/01/04 06:57:41;;;;;;;;;0.00;0.00;;;;;13.27;100.00;102089.38;5077152;27;46870;-74
2023/01/04 07:00:07;;;;;;;;;0.00;0.00;;;;;13.26;100.00;102076.97;5072175;27;58265;-74
2023/01/04 07:02:33;;;;;;;;;0.00;0.00;;;;;13.27;100.00;102075.22;5068389;27;45455;-73
2023/01/04 07:04:58;;;;;;;;;0.00;0.00;;;;;13.28;100.00;102067.28;5079823;27;45523;-75
2023/01/04 07:07:24;;;;;;;;;0.00;0.00;;;;;13.31;100.00;102074.41;5062199;28;47544;-75
2023/01/04 07:09:49;;;;;;;;;2.00;0.00;;;;;13.32;100.00;102070.91;5077350;27;57297;-74
2023/01/04 07:12:14;;;;;;;;;0.00;0.00;;;;;13.30;100.00;102065.53;5075401;27;45792;-73
2023/01/04 07:14:40;;;;;;;;;0.00;0.00;;;;;13.31;100.00;102074.41;5069686;27;52904;-74
2023/01/04 07:17:05;;;;;;;;;0.00;0.00;;;;;13.31;100.00;102061.13;5069205;27;59792;-80
2023/01/04 07:19:30;;;;;;;;;0.00;0.00;;;;;13.31;100.00;102080.59;5083475;27;45449;-74
2023/01/04 07:21:57;;;;;;;;;0.00;0.00;;;;;13.30;100.00;102072.63;5068120;27;45271;-74
2023/01/04 07:24:23;;;;;;;;;0.00;0.00;;;;;13.32;100.00;102066.50;5067510;28;45417;-78
2023/01/04 07:26:48;;;;;;;;;0.00;0.00;;;;;13.27;100.00;102073.47;5076900;28;45531;-71
2023/01/04 07:29:15;;;;;;;;;0.00;0.00;;;;;13.27;100.00;102072.56;5078921;27;45446;-71
2023/01/04 07:31:42;;;;;;;;;0.00;0.00;;;;;13.24;100.00;102083.09;5082408;27;45319;-70
2023/01/04 07:34:07;;;;;;;;;0.00;0.00;;;;;13.22;100.00;102082.19;5061360;28;45220;-72
2023/01/04 07:36:32;;;;;;;;;0.00;0.00;;;;;13.18;100.00;102089.16;5078475;28;46555;-71
2023/01/04 07:38:59;;;;;;;;;0.00;0.00;;;;;13.15;100.00;102077.56;5072227;27;57573;-71
2023/01/04 07:41:24;;;;;;;;;0.00;0.00;;;;;13.14;100.00;102089.06;5082319;27;45332;-72
2023/01/04 07:43:50;;;;;;;;;1.00;0.00;;;;;13.15;100.00;102090.84;5079164;27;45556;-72
2023/01/04 07:46:15;;;;;;;;;0.00;0.00;;;;;13.14;100.00;102095.25;5091482;27;59493;-74
2023/01/04 07:48:41;;;;;;;;;0.33;0.00;;;;;13.15;100.00;102082.88;5084813;27;45424;-74
2023/01/04 07:51:06;;;;;;;;;0.00;0.00;;;;;13.14;100.00;102092.59;5052070;28;55355;-73
2023/01/04 07:53:32;;;;;;;;;0.00;0.00;;;;;13.15;100.00;102072.28;5045006;28;52695;-72
2023/01/04 07:55:58;;;;;;;;;0.00;0.00;;;;;13.13;100.00;102081.97;5061903;28;46584;-72
2023/01/04 07:58:24;;;;;;;;;0.00;0.00;;;;;13.16;100.00;102076.72;5036060;28;45511;-74
2023/01/04 08:00:50;;;;;;;;;0.00;0.00;;;;;13.20;100.00;102087.41;5042385;28;45518;-72
2023/01/04 08:03:15;;;;;;;;;1.67;0.00;;;;;13.27;100.00;102093.78;5047174;28;45987;-73
2023/01/04 08:05:41;;;;;;;;;1.00;0.00;;;;;13.30;100.00;102088.53;5059598;28;59418;-76
2023/01/04 08:08:07;;;;;;;;;1.00;0.00;;;;;13.36;100.00;102086.88;5050430;28;45567;-72
2023/01/04 08:10:32;;;;;;;;;1.00;0.00;;;;;13.37;100.00;102077.19;5048236;28;45490;-71
2023/01/04 08:12:59;;;;;;;;;0.00;0.00;;;;;13.42;100.00;102088.75;5053070;28;47019;-72
2023/01/04 08:18:47;;;;;;;;;0.00;0.00;;;;;13.47;100.00;102078.25;5056369;28;45352;-74
2023/01/04 08:21:12;;;;;;;;;0.00;0.00;;;;;13.48;100.00;102070.34;5055710;28;45486;-72
2023/01/04 08:23:38;;;;;;;;;0.00;0.00;;;;;13.48;100.00;102075.63;5059176;27;45572;-72
2023/01/04 08:26:09;;;;;;;;;0.00;0.00;;;;;13.55;100.00;102079.28;5056295;28;46294;-72
2023/01/04 08:28:35;;;;;;;;;1.00;1.00;;;;;13.57;100.00;102064.28;5038186;28;45323;-73
2023/01/04 08:31:09;;;;;;;;;0.00;0.00;;;;;13.59;100.00;102058.16;5042373;28;45541;-72
2023/01/04 08:33:36;;;;;;;;;0.00;0.00;;;;;13.65;100.00;102065.34;5054955;28;45495;-72
2023/01/04 08:36:10;;;;;;;;;1.67;0.00;;;;;13.66;100.00;102074.19;5030797;28;45422;-72
2023/01/04 08:38:36;;;;;;;;;2.67;0.00;;;;;13.69;100.00;102077.81;5060584;28;45469;-72
2023/01/04 08:41:01;;;;;;;;;2.00;0.00;;;;;13.70;100.00;102076.94;5058689;28;45396;-72
2023/01/04 08:43:26;;;;;;;;;2.00;0.00;;;;;13.74;100.00;102083.16;5056824;28;45435;-72
2023/01/04 08:45:52;;;;;;;;;0.00;0.00;;;;;13.76;100.00;102082.34;5054621;28;45822;-72
2023/01/04 08:48:17;;;;;;;;;0.00;0.00;;;;;13.82;100.00;102092.19;5059741;28;57708;-72
2023/01/04 08:50:42;;;;;;;;;0.00;0.00;;;;;13.80;100.00;102093.91;5205967;22;45682;-74
2023/01/04 08:53:08;;;;;;;;;1.00;0.00;;;;;13.85;100.00;102092.25;5078820;27;45573;-74
2023/01/04 08:55:33;;;;;;;;;1.00;0.00;;;;;13.88;100.00;102095.81;5076341;28;45712;-73
2023/01/04 08:57:59;;;;;;;;;0.00;0.00;;;;;13.89;100.00;102097.59;5075414;27;56418;-72
2023/01/04 09:00:25;;;;;;;;;0.00;0.00;;;;;13.93;100.00;102087.94;5075809;28;45374;-73
2023/01/04 09:02:51;;;;;;;;;1.00;0.00;;;;;13.91;100.00;102079.06;5072946;28;45437;-73
2023/01/04 09:05:16;;;;;;;;;0.00;0.00;;;;;13.94;100.00;102087.06;5073313;28;46075;-75
2023/01/04 09:07:42;;;;;;;;;1.67;0.00;;;;;13.92;100.00;102070.22;5074692;28;45565;-79
2023/01/04 09:10:08;;;;;;;;;0.00;0.00;;;;;13.97;100.00;102081.81;5075021;28;46468;-72
2023/01/04 09:12:33;;;;;;;;;0.00;0.00;;;;;13.97;100.00;102076.50;5075171;28;45469;-76
2023/01/04 09:14:59;;;;;;;;;0.00;0.00;;;;;14.01;100.00;102078.38;5072613;28;46902;-73
2023/01/04 09:17:24;;;;;;;;;0.00;0.00;;;;;14.01;100.00;102065.09;5076200;28;45553;-72
2023/01/04 09:19:49;;;;;;;;;1.00;0.00;;;;;14.04;100.00;102075.75;5074875;28;45445;-72
2023/01/04 09:22:15;;;;;;;;;0.00;0.00;;;;;14.07;100.00;102061.63;5076201;28;45846;-72
2023/01/04 09:24:40;;;;;;;;;0.67;0.00;;;;;14.08;100.00;102061.66;5075183;28;46190;-71
2023/01/04 09:27:05;;;;;;;;;1.00;0.00;;;;;14.10;100.00;102054.59;5076342;28;51646;-72
2023/01/04 09:29:31;;;;;;;;;0.00;0.00;;;;;14.11;100.00;102056.41;5075619;28;51556;-73
2023/01/04 09:31:56;;;;;;;;;0.67;0.00;;;;;14.10;100.00;102051.94;5075854;28;45216;-72
2023/01/04 09:34:22;;;;;;;;;0.00;0.00;;;;;14.11;100.00;102050.16;5076074;28;60220;-74
2023/01/04 09:36:47;;;;;;;;;0.00;0.00;;;;;14.09;100.00;102073.16;5075202;28;45430;-72
2023/01/04 09:39:13;;;;;;;;;0.00;0.00;;;;;14.10;100.00;102041.31;5073463;28;45335;-75
2023/01/04 09:41:45;;;;;;;;;0.00;0.00;;;;;14.14;100.00;102048.47;5057620;28;45495;-72
2023/01/04 09:44:24;;;;;;;;;0.00;0.00;;;;;14.16;100.00;102041.41;5075110;28;45989;-72
2023/01/04 09:46:55;;;;;;;;;0.00;0.00;;;;;14.19;100.00;102045.00;5070570;28;45532;-72
2023/01/04 09:49:44;;;;;;;;;0.00;0.00;;;;;14.24;100.00;102054.81;5070219;27;45657;-74
2023/01/04 09:52:09;;;;;;;;;0.00;0.00;;;;;14.25;100.00;102042.44;5056388;28;45347;-75
2023/01/04 09:54:58;;;;;;;;;0.00;0.00;;;;;14.28;100.00;102063.75;5074273;28;47351;-72
2023/01/04 09:57:46;;;;;;;;;1.00;0.00;;;;;14.29;100.00;102060.22;5045418;28;46588;-73
2023/01/04 10:00:20;;;;;;;;;0.33;0.33;;;;;14.28;100.00;102061.09;5058021;28;45549;-72
2023/01/04 10:02:49;;;;;;;;;0.00;0.00;;;;;14.32;100.00;102073.53;5072382;28;45522;-72
2023/01/04 10:05:21;;;;;;;;;0.00;0.00;;;;;14.34;100.00;102056.75;5074431;28;45835;-72
2023/01/04 10:07:46;;;;;;;;;1.00;0.00;;;;;14.38;100.00;102071.88;5074171;28;45442;-75
2023/01/04 10:10:13;;;;;;;;;0.00;0.00;;;;;14.39;100.00;102071.00;5074900;28;50006;-72
2023/01/04 10:12:55;;;;;;;;;0.00;0.00;;;;;14.41;100.00;102073.66;5075590;28;45415;-74
2023/01/04 10:15:26;;;;;;;;;0.00;0.00;;;;;14.44;100.00;102089.69;5075384;28;47097;-72
2023/01/04 10:18:08;;;;;;;;;0.00;0.00;;;;;14.46;100.00;102092.34;5075695;28;45497;-72
2023/01/04 10:20:50;;;;;;;;;2.00;0.00;;;;;14.48;100.00;102088.84;5051848;28;45526;-72
2023/01/04 10:23:22;;;;;;;;;0.00;0.00;;;;;14.48;100.00;102096.84;5073880;28;45497;-73
2023/01/04 10:25:51;;;;;;;;;0.00;0.00;;;;;14.47;100.00;102092.41;5075086;28;45982;-72
2023/01/04 10:28:35;;;;;;;;;1.00;0.00;;;;;14.48;100.00;102093.28;5074285;28;45465;-73
2023/01/04 10:31:17;;;;;;;;;0.00;0.00;;;;;14.46;100.00;102068.44;5069905;27;45616;-73
2023/01/04 10:33:53;;;;;;;;;0.00;0.00;;;;;14.45;100.00;102082.59;5069307;28;45498;-72
2023/01/04 10:36:21;;;;;;;;;0.00;0.00;;;;;14.48;100.00;102072.91;5069671;28;47891;-72
2023/01/04 10:38:58;;;;;;;;;0.00;0.00;;;;;14.49;100.00;102072.06;5056579;28;45687;-71
2023/01/04 10:41:25;;;;;;;;;0.00;0.00;;;;;14.51;100.00;102082.72;5073261;28;45562;-73
2023/01/04 10:44:13;;;;;;;;;3.00;0.00;;;;;14.53;100.00;102088.94;5056573;28;45610;-73
2023/01/04 10:46:41;;;;;;;;;0.67;0.00;;;;;14.51;100.00;102080.06;5072030;28;45486;-75
2023/01/04 10:49:09;;;;;;;;;0.00;0.00;;;;;14.52;100.00;102080.06;5074488;28;45544;-75
2023/01/04 10:51:45;;;;;;;;;2.00;0.67;;;;;14.53;100.00;102073.88;5075303;28;45602;-75
2023/01/04 10:54:24;;;;;;;;;0.00;0.00;;;;;14.53;100.00;102073.00;5074818;28;45465;-73
2023/01/04 10:56:51;;;;;;;;;0.00;0.00;;;;;14.56;100.00;102081.91;5070011;28;46481;-72
2023/01/04 10:59:36;;;;;;;;;0.00;0.00;;;;;14.56;100.00;102073.03;5072025;28;45549;-73
2023/01/04 11:02:15;;;;;;;;;0.00;0.00;;;;;14.59;100.00;102076.63;5070487;28;45428;-78
2023/01/04 11:04:48;;;;;;;;;2.00;0.00;;;;;14.59;100.00;102071.31;5080834;28;45466;-73
2023/01/04 11:07:33;;;;;;;;;0.33;0.00;;;;;14.58;100.00;102069.53;5080344;28;45555;-73
2023/01/04 11:10:03;;;;;;;;;0.00;0.00;;;;;14.56;100.00;102068.63;5073095;28;45534;-74
2023/01/04 11:12:29;;;;;;;;;2.00;0.00;;;;;14.58;100.00;102066.88;5056726;28;45510;-73
2023/01/04 11:14:54;;;;;;;;;0.00;0.00;;;;;14.59;100.00;102059.78;5081250;28;45458;-73
2023/01/04 11:17:21;;;;;;;;;2.00;0.00;;;;;14.57;100.00;102065.09;5081385;28;46494;-73
2023/01/04 11:19:46;;;;;;;;;2.00;1.00;;;;;14.58;100.00;102061.53;5080530;28;45472;-72
2023/01/04 11:22:35;;;;;;;;;1.00;1.00;;;;;14.60;100.00;102058.94;5062891;28;45529;-73
2023/01/04 11:25:03;;;;;;;;;1.33;0.00;;;;;14.58;100.00;102058.88;5081826;27;45454;-73
2023/01/04 11:27:31;;;;;;;;;0.00;0.00;;;;;14.58;100.00;102045.59;5062645;28;45942;-74
2023/01/04 11:30:08;;;;;;;;;0.00;0.00;;;;;14.62;100.00;102060.72;5080452;28;45407;-81
2023/01/04 11:32:46;;;;;;;;;2.00;0.00;;;;;14.64;100.00;102058.06;5058808;28;45427;-74
2023/01/04 11:35:11;;;;;;;;;0.67;0.00;;;;;14.62;100.00;102046.53;5064405;28;45550;-72
2023/01/04 11:37:39;;;;;;;;;0.00;0.00;;;;;14.63;100.00;102048.31;5082182;28;45833;-73
2023/01/04 11:40:16;;;;;;;;;0.00;0.00;;;;;14.66;100.00;102051.03;5081893;28;45474;-73
2023/01/04 11:42:46;;;;;;;;;2.00;0.00;;;;;14.65;100.00;102036.84;5081981;28;45463;-74
2023/01/04 11:45:26;;;;;;;;;1.00;1.00;;;;;14.66;100.00;102043.97;5081584;27;45503;-72
2023/01/04 11:47:56;;;;;;;;;0.00;0.00;;;;;14.66;100.00;102033.31;5077081;28;46241;-72
2023/01/04 11:50:34;;;;;;;;;0.67;0.67;;;;;14.68;100.00;102023.59;5079447;28;45505;-72
2023/01/04 11:52:59;;;;;;;;;0.00;0.00;;;;;14.66;100.00;102027.13;5078226;28;46144;-72
2023/01/04 11:55:29;;;;;;;;;0.33;0.00;;;;;14.67;100.00;102021.81;5080405;28;45451;-71
2023/01/04 11:58:11;;;;;;;;;0.00;0.00;;;;;14.71;100.00;102008.56;5080946;28;45763;-72
2023/01/04 12:00:38;;;;;;;;;0.00;0.00;;;;;14.72;100.00;101997.06;5081023;28;45414;-75
2023/01/04 12:03:11;;;;;;;;;0.00;0.00;;;;;14.75;100.00;102013.91;5076581;28;45671;-73
2023/01/04 12:05:37;;;;;;;;;0.00;0.00;;;;;14.76;100.00;102002.44;5062716;28;45553;-74
2023/01/04 12:08:03;;;;;;;;;2.00;0.00;;;;;14.78;100.00;102002.44;5080537;28;62200;-72
2023/01/04 12:10:29;;;;;;;;;0.00;0.00;;;;;14.75;100.00;102007.72;5081600;28;45373;-72
2023/01/04 12:12:55;;;;;;;;;1.00;1.00;;;;;14.76;100.00;102020.16;5078499;28;45305;-74
2023/01/04 12:15:31;;;;;;;;;0.00;0.00;;;;;14.72;100.00;102010.34;5076980;28;45481;-72